Time;durP1;ratioP1;P1;durP2;ratioP2;P2;SDS_P1;SDS_P2;PMS_P1;PMS_P2;Temp;Humidity;BMP_temperature;BMP_pressure;BME280_temperature;BME280_humidity;BME280_pressure;Samples;Min_cycle;Max_cycle;Signal;HPM_P1;HPM_P2
2023/04/29 00:00:14;;;;;;;5.88;1.90;;;;;;;;;;5114264;28;20046;-59
2023/04/29 00:02:41;;;;;;;2.63;1.85;;;;;;;;;;5112524;28;20102;-59
2023/04/29 00:05:08;;;;;;;12.60;2.33;;;;;;;;;;5108818;28;20101;-59
2023/04/29 00:07:35;;;;;;;2.90;2.22;;;;;;;;;;5109199;28;20028;-59
2023/04/29 00:10:02;;;;;;;3.40;1.95;;;;;;;;;;5109204;28;20387;-59
2023/04/29 00:12:30;;;;;;;6.18;2.47;;;;;;;;;;5109955;28;20052;-59
2023/04/29 00:14:57;;;;;;;5.82;1.90;;;;;;;;;;5114156;28;20109;-59
2023/04/29 00:17:24;;;;;;;2.70;1.73;;;;;;;;;;5113688;28;20112;-59
2023/04/29 00:19:51;;;;;;;1.85;1.27;;;;;;;;;;5114015;28;20023;-59
2023/04/29 00:22:18;;;;;;;2.33;1.80;;;;;;;;;;5113428;28;20474;-59
2023/04/29 00:24:45;;;;;;;2.33;1.67;;;;;;;;;;5113148;28;20323;-59
2023/04/29 00:27:11;;;;;;;8.68;1.95;;;;;;;;;;5108809;28;20024;-59
2023/04/29 00:29:38;;;;;;;6.03;3.40;;;;;;;;;;5108813;28;20028;-59
2023/04/29 00:32:05;;;;;;;2.40;1.52;;;;;;;;;;5108789;28;20044;-59
2023/04/29 00:34:32;;;;;;;10.52;2.05;;;;;;;;;;5108479;28;20072;-60
2023/04/29 00:36:59;;;;;;;2.63;1.65;;;;;;;;;;5113260;28;20020;-59
2023/04/29 00:39:25;;;;;;;6.10;2.60;;;;;;;;;;5113599;28;20055;-59
2023/04/29 00:41:52;;;;;;;3.83;2.30;;;;;;;;;;5113167;28;20098;-59
2023/04/29 00:44:19;;;;;;;6.93;2.70;;;;;;;;;;5113572;28;20024;-59
2023/04/29 00:46:46;;;;;;;9.75;2.08;;;;;;;;;;5113411;28;20535;-59
2023/04/29 00:49:13;;;;;;;2.42;1.83;;;;;;;;;;5089508;28;20038;-59
2023/04/29 00:51:41;;;;;;;3.70;2.35;;;;;;;;;;5108060;28;20053;-59
2023/04/29 00:54:08;;;;;;;4.45;2.35;;;;;;;;;;5108414;28;20049;-59
2023/04/29 00:56:35;;;;;;;3.55;2.22;;;;;;;;;;5108212;28;20023;-59
2023/04/29 00:59:03;;;;;;;8.98;2.03;;;;;;;;;;5112205;28;20027;-59
2023/04/29 01:01:30;;;;;;;2.70;1.80;;;;;;;;;;5113254;28;20059;-59
2023/04/29 01:03:57;;;;;;;3.00;2.00;;;;;;;;;;5113097;28;20136;-59
2023/04/29 01:06:36;;;;;;;4.25;2.55;;;;;;;;;;5112970;28;20072;-59
2023/04/29 01:09:18;;;;;;;4.28;1.98;;;;;;;;;;5112867;28;20031;-59
2023/04/29 01:12:05;;;;;;;1.85;1.40;;;;;;;;;;5107615;28;20089;-59
2023/04/29 01:14:36;;;;;;;3.63;2.30;;;;;;;;;;5107900;28;20016;-59
2023/04/29 01:17:06;;;;;;;2.55;1.58;;;;;;;;;;5108172;28;20484;-59
2023/04/29 01:19:50;;;;;;;3.03;1.95;;;;;;;;;;5108221;28;20057;-60
2023/04/29 01:22:17;;;;;;;2.30;1.50;;;;;;;;;;5112781;28;20043;-59
2023/04/29 01:24:45;;;;;;;2.63;1.80;;;;;;;;;;5112845;28;20056;-59
2023/04/29 01:27:11;;;;;;;2.22;1.23;;;;;;;;;;5112772;28;20027;-59
2023/04/29 01:29:41;;;;;;;5.07;2.20;;;;;;;;;;5112949;28;20106;-59
2023/04/29 01:32:12;;;;;;;3.87;2.00;;;;;;;;;;5111714;28;20547;-59
2023/04/29 01:34:42;;;;;;;3.25;2.03;;;;;;;;;;5107700;28;20023;-59
2023/04/29 01:37:22;;;;;;;8.00;2.07;;;;;;;;;;5107817;28;20016;-59
2023/04/29 01:40:05;;;;;;;6.87;2.40;;;;;;;;;;5107908;28;20052;-59
2023/04/29 01:42:35;;;;;;;8.60;3.00;;;;;;;;;;5109240;28;20019;-59
2023/04/29 01:45:04;;;;;;;3.33;1.93;;;;;;;;;;5094160;28;20051;-59
2023/04/29 01:47:30;;;;;;;2.50;1.90;;;;;;;;;;5112716;28;20019;-59
2023/04/29 01:49:57;;;;;;;4.37;1.90;;;;;;;;;;5112771;28;20437;-59
2023/04/29 01:52:24;;;;;;;10.43;2.33;;;;;;;;;;5112661;28;20036;-59
2023/04/29 01:54:51;;;;;;;2.20;1.50;;;;;;;;;;5110999;28;20069;-59
2023/04/29 01:57:18;;;;;;;3.07;1.90;;;;;;;;;;5107544;28;20382;-59
2023/04/29 01:59:45;;;;;;;2.77;2.07;;;;;;;;;;5107516;28;20028;-58
2023/04/29 02:02:14;;;;;;;3.20;1.90;;;;;;;;;;5111531;28;20066;-59
2023/04/29 02:04:41;;;;;;;3.70;2.07;;;;;;;;;;5112556;28;20363;-59
2023/04/29 02:07:08;;;;;;;6.73;2.33;;;;;;;;;;5116711;28;20370;-59
2023/04/29 02:09:35;;;;;;;5.33;2.27;;;;;;;;;;5116428;28;20131;-59
2023/04/29 02:12:03;;;;;;;3.77;1.70;;;;;;;;;;5116650;28;20057;-59
2023/04/29 02:14:30;;;;;;;4.83;2.40;;;;;;;;;;5116392;28;20020;-59
2023/04/29 02:16:57;;;;;;;2.27;1.53;;;;;;;;;;5115083;28;20027;-59
2023/04/29 02:19:24;;;;;;;6.30;2.57;;;;;;;;;;5111328;28;20031;-59
2023/04/29 02:21:50;;;;;;;3.23;1.77;;;;;;;;;;5111120;28;20024;-59
2023/04/29 02:24:17;;;;;;;4.80;2.27;;;;;;;;;;5111188;28;20051;-59
2023/04/29 02:26:44;;;;;;;2.40;1.43;;;;;;;;;;5111554;28;20030;-59
2023/04/29 02:29:11;;;;;;;1.33;1.23;;;;;;;;;;5116106;28;20053;-59
2023/04/29 02:31:37;;;;;;;3.53;2.03;;;;;;;;;;5116246;28;20499;-59
2023/04/29 02:34:04;;;;;;;3.60;2.03;;;;;;;;;;5115795;28;20020;-59
2023/04/29 02:36:31;;;;;;;2.20;1.70;;;;;;;;;;5116084;28;20023;-59
2023/04/29 02:38:59;;;;;;;4.73;2.40;;;;;;;;;;5115653;28;20452;-59
2023/04/29 02:41:26;;;;;;;3.93;2.17;;;;;;;;;;5110490;28;20534;-59
2023/04/29 02:43:52;;;;;;;3.03;1.87;;;;;;;;;;5110946;28;20028;-59
2023/04/29 02:46:19;;;;;;;4.43;1.90;;;;;;;;;;5110877;28;20028;-59
2023/04/29 02:48:46;;;;;;;3.30;2.23;;;;;;;;;;5110818;28;20030;-59
2023/04/29 02:51:13;;;;;;;4.50;2.27;;;;;;;;;;5115373;28;20081;-59
2023/04/29 02:53:40;;;;;;;8.97;2.30;;;;;;;;;;5115755;28;20024;-59
2023/04/29 02:56:06;;;;;;;4.57;1.87;;;;;;;;;;5097567;28;20024;-59
2023/04/29 02:58:33;;;;;;;4.50;2.23;;;;;;;;;;5115234;28;20405;-59
2023/04/29 03:01:00;;;;;;;3.53;1.57;;;;;;;;;;5115491;28;20031;-59
2023/04/29 03:03:27;;;;;;;4.10;2.27;;;;;;;;;;5110674;28;20038;-59
2023/04/29 03:05:53;;;;;;;3.37;1.33;;;;;;;;;;5110527;28;20021;-59
2023/04/29 03:08:21;;;;;;;4.53;2.13;;;;;;;;;;5110257;28;20076;-59
2023/04/29 03:10:47;;;;;;;3.67;2.10;;;;;;;;;;5109975;28;20030;-59
2023/04/29 03:13:14;;;;;;;3.30;2.17;;;;;;;;;;5114126;28;20023;-58
2023/04/29 03:15:41;;;;;;;3.10;1.93;;;;;;;;;;5115364;28;20019;-59
2023/04/29 03:18:08;;;;;;;3.63;2.20;;;;;;;;;;5114962;28;20110;-59
2023/04/29 03:20:35;;;;;;;3.07;2.03;;;;;;;;;;5114956;28;20023;-59
2023/04/29 03:23:02;;;;;;;3.20;2.10;;;;;;;;;;5115171;28;20042;-58
2023/04/29 03:25:29;;;;;;;1.97;1.43;;;;;;;;;;5111064;28;20032;-59
2023/04/29 03:27:56;;;;;;;6.83;1.90;;;;;;;;;;5110073;28;20024;-59
2023/04/29 03:30:22;;;;;;;3.80;2.30;;;;;;;;;;5110016;28;20035;-59
2023/04/29 03:32:49;;;;;;;2.50;1.63;;;;;;;;;;5110070;28;20022;-60
2023/04/29 03:35:16;;;;;;;15.87;2.30;;;;;;;;;;5112567;28;20056;-60
2023/04/29 03:37:43;;;;;;;2.33;1.73;;;;;;;;;;5114792;28;20020;-59
2023/04/29 03:40:10;;;;;;;3.30;1.93;;;;;;;;;;5115069;28;20035;-59
2023/04/29 03:42:37;;;;;;;3.40;1.93;;;;;;;;;;5114804;28;20405;-59
2023/04/29 03:45:04;;;;;;;3.47;1.93;;;;;;;;;;5114823;28;20027;-59
2023/04/29 03:47:31;;;;;;;9.73;2.90;;;;;;;;;;5111442;28;20016;-59
2023/04/29 03:49:57;;;;;;;2.97;1.80;;;;;;;;;;5109592;28;20039;-58
2023/04/29 03:52:24;;;;;;;19.17;1.93;;;;;;;;;;5109621;28;20497;-59
2023/04/29 03:54:51;;;;;;;5.07;2.50;;;;;;;;;;5109249;28;20024;-59
2023/04/29 03:57:18;;;;;;;6.03;3.07;;;;;;;;;;5111885;28;20031;-59
2023/04/29 03:59:48;;;;;;;2.73;2.03;;;;;;;;;;5114567;28;20052;-58
2023/04/29 04:02:16;;;;;;;3.07;2.10;;;;;;;;;;5114595;28;20440;-58
2023/04/29 04:04:43;;;;;;;5.57;2.70;;;;;;;;;;5114443;28;20024;-59
2023/04/29 04:07:10;;;;;;;2.80;2.10;;;;;;;;;;5114509;28;20095;-59
2023/04/29 04:09:37;;;;;;;5.93;2.20;;;;;;;;;;5111667;28;20073;-58
2023/04/29 04:12:04;;;;;;;4.83;2.30;;;;;;;;;;5109247;28;20028;-59
2023/04/29 04:14:31;;;;;;;3.23;1.70;;;;;;;;;;5109070;28;20605;-59
2023/04/29 04:16:58;;;;;;;3.67;1.63;;;;;;;;;;5109208;28;20085;-58
2023/04/29 04:19:25;;;;;;;6.90;2.53;;;;;;;;;;5110982;28;20440;-59
2023/04/29 04:21:52;;;;;;;4.70;1.83;;;;;;;;;;5114081;28;20458;-59
2023/04/29 04:24:19;;;;;;;12.80;2.27;;;;;;;;;;5113191;28;20070;-58
2023/04/29 04:26:46;;;;;;;3.23;2.30;;;;;;;;;;5113797;28;20064;-58
2023/04/29 04:29:13;;;;;;;2.83;2.13;;;;;;;;;;5113546;28;20035;-58
2023/04/29 04:31:40;;;;;;;4.20;2.47;;;;;;;;;;5093540;28;20031;-59
2023/04/29 04:34:06;;;;;;;5.23;2.50;;;;;;;;;;5108688;28;20032;-58
2023/04/29 04:36:33;;;;;;;4.63;2.13;;;;;;;;;;5108621;28;20023;-59
2023/04/29 04:39:00;;;;;;;5.67;2.43;;;;;;;;;;5108746;28;20023;-59
2023/04/29 04:41:30;;;;;;;3.70;2.53;;;;;;;;;;5109834;28;20023;-58
2023/04/29 04:43:57;;;;;;;4.83;2.40;;;;;;;;;;5113598;28;20024;-58
2023/04/29 04:46:24;;;;;;;5.33;2.33;;;;;;;;;;5113600;28;20497;-58
2023/04/29 04:48:50;;;;;;;5.30;2.40;;;;;;;;;;5113111;28;20542;-59
2023/04/29 04:51:17;;;;;;;4.73;2.20;;;;;;;;;;5113363;28;20027;-58
2023/04/29 04:53:44;;;;;;;2.87;2.17;;;;;;;;;;5112008;28;20039;-59
2023/04/29 04:56:10;;;;;;;3.20;2.00;;;;;;;;;;5108288;28;20024;-59
2023/04/29 04:58:37;;;;;;;4.97;2.30;;;;;;;;;;5108243;28;20024;-58
2023/04/29 05:01:04;;;;;;;11.77;2.70;;;;;;;;;;5108305;28;20436;-58
2023/04/29 05:03:31;;;;;;;3.20;2.23;;;;;;;;;;5108520;28;20077;-59
2023/04/29 05:05:59;;;;;;;5.00;2.30;;;;;;;;;;5112974;28;20094;-59
2023/04/29 05:08:25;;;;;;;5.00;2.77;;;;;;;;;;5113228;28;20031;-58
2023/04/29 05:10:52;;;;;;;4.57;2.43;;;;;;;;;;5113278;28;20443;-59
2023/04/29 05:13:19;;;;;;;4.60;2.80;;;;;;;;;;5113138;28;20411;-58
2023/04/29 05:15:46;;;;;;;9.87;3.40;;;;;;;;;;5112663;28;20020;-59
2023/04/29 05:18:13;;;;;;;6.37;2.73;;;;;;;;;;5107942;28;20047;-59
2023/04/29 05:20:39;;;;;;;5.13;2.57;;;;;;;;;;5107924;28;20095;-58
2023/04/29 05:23:06;;;;;;;11.33;2.07;;;;;;;;;;5107901;28;20050;-58
2023/04/29 05:25:33;;;;;;;3.90;1.80;;;;;;;;;;5107534;28;20023;-58
2023/04/29 05:28:00;;;;;;;3.40;2.37;;;;;;;;;;5112595;28;20039;-59
2023/04/29 05:30:27;;;;;;;6.00;2.13;;;;;;;;;;5112755;28;20031;-58
2023/04/29 05:32:53;;;;;;;3.90;2.23;;;;;;;;;;5112768;28;20028;-59
2023/04/29 05:35:21;;;;;;;3.77;2.03;;;;;;;;;;5112784;28;20027;-58
2023/04/29 05:37:47;;;;;;;3.27;2.03;;;;;;;;;;5112854;28;20072;-58
2023/04/29 05:40:14;;;;;;;6.10;2.60;;;;;;;;;;5107722;28;20588;-59
2023/04/29 05:42:41;;;;;;;15.80;2.67;;;;;;;;;;5107324;28;20047;-59
2023/04/29 05:45:08;;;;;;;3.60;2.23;;;;;;;;;;5107638;28;20039;-58
2023/04/29 05:47:35;;;;;;;22.53;3.40;;;;;;;;;;5107664;28;20035;-59
2023/04/29 05:50:02;;;;;;;3.67;2.17;;;;;;;;;;5111623;28;20032;-59
2023/04/29 05:52:29;;;;;;;2.87;1.90;;;;;;;;;;5112694;28;20051;-58
2023/04/29 05:54:56;;;;;;;2.30;1.80;;;;;;;;;;5112628;28;20431;-58
2023/04/29 05:57:23;;;;;;;4.50;2.10;;;;;;;;;;5112676;28;20494;-59
2023/04/29 05:59:50;;;;;;;16.63;2.90;;;;;;;;;;5111943;28;20020;-58
2023/04/29 06:02:16;;;;;;;2.43;1.80;;;;;;;;;;5108383;28;20031;-59
2023/04/29 06:04:43;;;;;;;13.40;2.00;;;;;;;;;;5107671;28;20028;-58
2023/04/29 06:07:11;;;;;;;1.60;1.20;;;;;;;;;;5107493;28;20090;-59
2023/04/29 06:09:38;;;;;;;2.73;1.80;;;;;;;;;;5107496;28;20477;-59
2023/04/29 06:12:05;;;;;;;3.00;2.20;;;;;;;;;;5110841;28;20543;-58
2023/04/29 06:14:31;;;;;;;3.93;2.10;;;;;;;;;;5112642;28;20027;-58
2023/04/29 06:16:58;;;;;;;4.93;2.50;;;;;;;;;;5112162;28;20378;-59
2023/04/29 06:19:25;;;;;;;4.07;2.37;;;;;;;;;;5112456;28;20027;-58
2023/04/29 06:21:52;;;;;;;1.17;0.93;;;;;;;;;;5112439;28;20024;-59
2023/04/29 06:24:18;;;;;;;28.67;2.87;;;;;;;;;;5108825;28;20055;-58
2023/04/29 06:26:45;;;;;;;3.03;2.13;;;;;;;;;;5107239;28;20061;-58
2023/04/29 06:29:12;;;;;;;8.83;3.07;;;;;;;;;;5107189;28;20046;-59
2023/04/29 06:31:39;;;;;;;5.63;2.83;;;;;;;;;;5107253;28;20080;-58
2023/04/29 06:34:06;;;;;;;5.50;2.47;;;;;;;;;;5109924;28;20026;-59
2023/04/29 06:36:33;;;;;;;3.33;2.17;;;;;;;;;;5111894;28;20015;-59
2023/04/29 06:39:02;;;;;;;3.70;2.03;;;;;;;;;;5112128;28;20024;-59
2023/04/29 06:41:29;;;;;;;3.70;2.37;;;;;;;;;;5112363;28;20073;-59
2023/04/29 06:43:56;;;;;;;3.30;2.13;;;;;;;;;;5112219;28;20024;-58
2023/04/29 06:46:23;;;;;;;9.20;3.10;;;;;;;;;;5110319;28;20047;-59
2023/04/29 06:48:49;;;;;;;6.63;2.00;;;;;;;;;;5110809;28;20032;-58
2023/04/29 06:51:16;;;;;;;25.37;3.17;;;;;;;;;;5110491;28;20031;-59
2023/04/29 06:53:43;;;;;;;8.40;2.17;;;;;;;;;;5110182;28;20028;-58
2023/04/29 06:56:10;;;;;;;3.67;2.33;;;;;;;;;;5112830;28;20020;-58
2023/04/29 06:58:37;;;;;;;2.73;2.03;;;;;;;;;;5115883;28;20085;-58
2023/04/29 07:01:05;;;;;;;4.80;2.47;;;;;;;;;;5115451;28;20031;-58
2023/04/29 07:03:32;;;;;;;3.03;1.90;;;;;;;;;;5115351;28;20027;-58
2023/04/29 07:05:59;;;;;;;8.07;3.20;;;;;;;;;;5115595;28;20069;-58
2023/04/29 07:08:27;;;;;;;2.60;2.00;;;;;;;;;;5112964;28;20035;-58
2023/04/29 07:10:55;;;;;;;2.90;2.27;;;;;;;;;;5109883;28;20065;-58
2023/04/29 07:13:22;;;;;;;4.23;2.33;;;;;;;;;;5110175;28;20469;-58
2023/04/29 07:15:49;;;;;;;3.97;2.80;;;;;;;;;;5110590;28;20027;-58
2023/04/29 07:18:16;;;;;;;2.00;1.60;;;;;;;;;;5111717;28;20561;-58
2023/04/29 07:20:43;;;;;;;3.57;2.20;;;;;;;;;;5115218;28;20073;-58
2023/04/29 07:23:10;;;;;;;4.77;1.90;;;;;;;;;;5115328;28;20020;-58
2023/04/29 07:25:36;;;;;;;5.93;3.27;;;;;;;;;;5097261;28;20035;-58
2023/04/29 07:28:03;;;;;;;6.90;2.77;;;;;;;;;;5115029;28;20027;-58
2023/04/29 07:30:30;;;;;;;4.13;1.80;;;;;;;;;;5113187;28;20055;-59
2023/04/29 07:32:57;;;;;;;2.63;1.60;;;;;;;;;;5110084;28;20024;-58
2023/04/29 07:35:23;;;;;;;5.83;2.47;;;;;;;;;;5109944;28;20482;-58
2023/04/29 07:37:50;;;;;;;2.93;2.13;;;;;;;;;;5109900;28;20015;-58
2023/04/29 07:40:17;;;;;;;2.93;2.20;;;;;;;;;;5110863;28;20098;-58
2023/04/29 07:42:44;;;;;;;6.60;2.23;;;;;;;;;;5114835;28;20023;-58
2023/04/29 07:45:12;;;;;;;13.63;2.57;;;;;;;;;;5114685;28;20370;-58
2023/04/29 07:47:39;;;;;;;9.83;3.23;;;;;;;;;;5114520;28;20028;-58
2023/04/29 07:50:06;;;;;;;5.13;3.00;;;;;;;;;;5114547;28;20035;-58
2023/04/29 07:52:33;;;;;;;8.20;2.20;;;;;;;;;;5113542;28;20094;-58
2023/04/29 07:55:00;;;;;;;3.53;2.20;;;;;;;;;;5109664;28;20088;-58
2023/04/29 07:57:27;;;;;;;6.73;3.03;;;;;;;;;;5108450;28;20494;-58
2023/04/29 07:59:54;;;;;;;3.93;2.33;;;;;;;;;;5109418;28;20055;-58
2023/04/29 08:02:21;;;;;;;1.80;1.43;;;;;;;;;;5109545;28;20250;-58
2023/04/29 08:04:49;;;;;;;2.67;1.87;;;;;;;;;;5114022;28;20023;-58
2023/04/29 08:07:16;;;;;;;3.03;2.00;;;;;;;;;;5114408;28;20102;-58
2023/04/29 08:09:43;;;;;;;2.37;1.63;;;;;;;;;;5114312;28;20031;-58
2023/04/29 08:12:09;;;;;;;4.80;2.77;;;;;;;;;;5095905;28;20023;-58
2023/04/29 08:14:36;;;;;;;2.90;1.63;;;;;;;;;;5113838;28;20023;-58
2023/04/29 08:17:03;;;;;;;6.73;2.67;;;;;;;;;;5090851;28;20436;-58
2023/04/29 08:19:30;;;;;;;2.10;1.43;;;;;;;;;;5108839;28;20053;-58
2023/04/29 08:21:57;;;;;;;4.67;2.33;;;;;;;;;;5108659;28;20482;-58
2023/04/29 08:24:23;;;;;;;7.30;3.27;;;;;;;;;;5108970;28;20032;-58
2023/04/29 08:26:51;;;;;;;6.17;3.17;;;;;;;;;;5113666;28;20426;-58
2023/04/29 08:29:18;;;;;;;4.27;2.87;;;;;;;;;;5113644;28;20038;-58
2023/04/29 08:31:45;;;;;;;5.60;3.10;;;;;;;;;;5113879;28;20550;-58
2023/04/29 08:34:12;;;;;;;4.17;2.80;;;;;;;;;;5113961;28;20379;-58
2023/04/29 08:36:39;;;;;;;4.40;2.87;;;;;;;;;;5113472;28;20026;-58
2023/04/29 08:39:06;;;;;;;3.27;2.23;;;;;;;;;;5108535;28;20051;-58
2023/04/29 08:41:33;;;;;;;3.60;2.40;;;;;;;;;;5108504;28;20027;-58
2023/04/29 08:44:00;;;;;;;2.90;2.20;;;;;;;;;;5108417;28;20428;-58
2023/04/29 08:46:27;;;;;;;6.17;3.37;;;;;;;;;;5108395;28;20087;-58
2023/04/29 08:48:55;;;;;;;5.63;2.77;;;;;;;;;;5112735;28;20031;-58
2023/04/29 08:51:22;;;;;;;3.10;2.23;;;;;;;;;;5113619;28;20497;-58
2023/04/29 08:53:48;;;;;;;17.20;3.23;;;;;;;;;;5113305;28;20031;-58
2023/04/29 08:56:21;;;;;;;5.30;2.97;;;;;;;;;;5113632;28;20055;-58
2023/04/29 08:58:53;;;;;;;26.70;3.30;;;;;;;;;;5113567;28;20023;-58
2023/04/29 09:01:21;;;;;;;3.33;2.20;;;;;;;;;;5108423;28;20038;-57
2023/04/29 09:03:53;;;;;;;4.53;2.53;;;;;;;;;;5108256;28;20027;-58
2023/04/29 09:06:20;;;;;;;6.03;2.50;;;;;;;;;;5108446;28;20028;-58
2023/04/29 09:08:47;;;;;;;6.93;2.63;;;;;;;;;;5107757;28;20366;-58
2023/04/29 09:11:14;;;;;;;5.13;2.77;;;;;;;;;;5112052;28;20043;-58
2023/04/29 09:13:41;;;;;;;4.77;2.70;;;;;;;;;;5113246;28;20031;-57
2023/04/29 09:16:13;;;;;;;8.47;3.43;;;;;;;;;;5113197;28;20564;-58
2023/04/29 09:18:47;;;;;;;2.57;1.70;;;;;;;;;;5113243;28;20030;-57
2023/04/29 09:21:21;;;;;;;3.53;1.93;;;;;;;;;;5113281;28;20028;-57
2023/04/29 09:23:49;;;;;;;2.13;1.67;;;;;;;;;;5107848;28;20355;-58
2023/04/29 09:26:16;;;;;;;5.23;3.13;;;;;;;;;;5107869;28;20016;-57
2023/04/29 09:28:44;;;;;;;6.23;2.67;;;;;;;;;;5107994;28;20027;-58
2023/04/29 09:31:11;;;;;;;3.87;2.00;;;;;;;;;;5107839;28;20127;-57
2023/04/29 09:33:52;;;;;;;5.70;2.47;;;;;;;;;;5112411;28;20076;-58
2023/04/29 09:36:38;;;;;;;2.83;2.20;;;;;;;;;;5112771;28;20363;-57
2023/04/29 09:39:10;;;;;;;5.37;2.07;;;;;;;;;;5113038;28;20499;-57
2023/04/29 09:41:38;;;;;;;5.73;2.97;;;;;;;;;;5112623;28;20028;-57
2023/04/29 09:44:08;;;;;;;3.10;2.30;;;;;;;;;;5111657;28;20053;-57
2023/04/29 09:46:36;;;;;;;5.47;2.90;;;;;;;;;;5107822;28;20584;-58
2023/04/29 09:49:06;;;;;;;3.23;2.33;;;;;;;;;;5107415;28;20432;-58
2023/04/29 09:51:33;;;;;;;2.90;1.90;;;;;;;;;;5107621;28;20028;-57
2023/04/29 09:54:20;;;;;;;4.30;2.37;;;;;;;;;;5107920;28;20031;-57
2023/04/29 09:56:50;;;;;;;3.33;2.03;;;;;;;;;;5112758;28;20035;-58
2023/04/29 09:59:18;;;;;;;5.40;2.43;;;;;;;;;;5112706;28;20535;-58
2023/04/29 10:01:48;;;;;;;12.60;2.03;;;;;;;;;;5112042;28;20027;-57
2023/04/29 10:04:15;;;;;;;4.70;2.73;;;;;;;;;;5112613;28;20112;-57
2023/04/29 10:06:42;;;;;;;5.00;3.17;;;;;;;;;;5110825;28;20020;-58
2023/04/29 10:09:10;;;;;;;3.47;1.83;;;;;;;;;;5107374;28;20128;-57
2023/04/29 10:11:37;;;;;;;2.70;1.70;;;;;;;;;;5107575;28;20072;-58
2023/04/29 10:14:05;;;;;;;3.90;2.40;;;;;;;;;;5107507;28;20544;-57
2023/04/29 10:16:43;;;;;;;3.40;2.27;;;;;;;;;;5108002;28;20020;-57
2023/04/29 10:19:12;;;;;;;4.37;2.53;;;;;;;;;;5112395;28;20494;-57
2023/04/29 10:21:39;;;;;;;6.00;2.53;;;;;;;;;;5114200;28;20390;-58
2023/04/29 10:24:06;;;;;;;5.07;2.30;;;;;;;;;;5116471;28;20034;-57
2023/04/29 10:26:36;;;;;;;3.17;1.60;;;;;;;;;;5116248;28;20475;-57
2023/04/29 10:29:03;;;;;;;2.70;1.43;;;;;;;;;;5114347;28;20062;-57
2023/04/29 10:31:31;;;;;;;4.63;2.93;;;;;;;;;;5111110;28;20024;-58
2023/04/29 10:34:00;;;;;;;7.50;2.77;;;;;;;;;;5111137;28;20517;-58
2023/04/29 10:36:29;;;;;;;6.27;3.37;;;;;;;;;;5110810;28;20062;-58
2023/04/29 10:38:58;;;;;;;9.10;3.03;;;;;;;;;;5112002;28;20031;-57
2023/04/29 10:41:44;;;;;;;23.93;3.37;;;;;;;;;;5115958;28;20046;-57
2023/04/29 10:44:11;;;;;;;2.00;1.50;;;;;;;;;;5115965;28;20027;-57
2023/04/29 10:46:38;;;;;;;2.80;2.07;;;;;;;;;;5116048;28;20093;-57
2023/04/29 10:49:05;;;;;;;6.17;3.37;;;;;;;;;;5115897;28;20023;-57
2023/04/29 10:51:32;;;;;;;5.40;2.23;;;;;;;;;;5113669;28;20035;-57
2023/04/29 10:54:00;;;;;;;2.10;1.63;;;;;;;;;;5110868;28;20030;-57
2023/04/29 10:56:37;;;;;;;6.17;2.53;;;;;;;;;;5110861;28;20400;-57
2023/04/29 10:59:04;;;;;;;3.47;2.30;;;;;;;;;;5110681;28;20034;-57
2023/04/29 11:01:47;;;;;;;2.67;1.87;;;;;;;;;;5112289;28;20028;-57
2023/04/29 11:04:14;;;;;;;3.07;2.33;;;;;;;;;;5115697;28;20485;-57
2023/04/29 11:06:42;;;;;;;3.53;2.17;;;;;;;;;;5115593;28;20065;-58
2023/04/29 11:09:18;;;;;;;1.97;1.27;;;;;;;;;;5114818;28;20084;-57
2023/04/29 11:11:59;;;;;;;7.03;2.97;;;;;;;;;;5115320;28;20081;-58
2023/04/29 11:14:41;;;;;;;5.43;2.23;;;;;;;;;;5111971;28;20019;-58
2023/04/29 11:17:09;;;;;;;3.50;2.43;;;;;;;;;;5109866;28;20504;-57
2023/04/29 11:19:50;;;;;;;4.43;2.90;;;;;;;;;;5110138;28;20067;-57
2023/04/29 11:22:20;;;;;;;3.70;2.00;;;;;;;;;;5110433;28;20485;-57
2023/04/29 11:24:50;;;;;;;5.33;2.63;;;;;;;;;;5113734;28;20028;-57
2023/04/29 11:27:18;;;;;;;5.03;2.43;;;;;;;;;;5115050;28;20023;-57
2023/04/29 11:29:46;;;;;;;2.37;1.90;;;;;;;;;;5114472;28;20055;-57
2023/04/29 11:32:13;;;;;;;5.87;3.40;;;;;;;;;;5114870;28;20517;-58
2023/04/29 11:34:40;;;;;;;2.00;1.67;;;;;;;;;;5114936;28;20031;-57
2023/04/29 11:37:07;;;;;;;5.30;2.07;;;;;;;;;;5110905;28;20024;-58
2023/04/29 11:39:35;;;;;;;4.53;2.37;;;;;;;;;;5109710;28;20027;-57
2023/04/29 11:42:07;;;;;;;2.90;1.90;;;;;;;;;;5109680;28;20073;-57
2023/04/29 11:44:34;;;;;;;3.43;2.13;;;;;;;;;;5109093;28;20038;-57
2023/04/29 11:47:02;;;;;;;4.47;2.37;;;;;;;;;;5113345;28;20069;-57
2023/04/29 11:49:32;;;;;;;1.73;1.53;;;;;;;;;;5114698;28;20465;-57
2023/04/29 11:51:59;;;;;;;2.07;1.57;;;;;;;;;;5114754;28;20096;-57
2023/04/29 11:54:27;;;;;;;3.03;2.17;;;;;;;;;;5114839;28;20483;-57
2023/04/29 11:56:54;;;;;;;2.90;1.97;;;;;;;;;;5114446;28;20073;-58
2023/04/29 11:59:21;;;;;;;3.53;1.73;;;;;;;;;;5110402;28;20020;-57
2023/04/29 12:01:49;;;;;;;4.30;2.20;;;;;;;;;;5108783;28;20517;-58
2023/04/29 12:04:16;;;;;;;11.73;3.03;;;;;;;;;;5109302;28;21111;-57
2023/04/29 12:06:42;;;;;;;6.80;2.10;;;;;;;;;;5090710;28;20102;-57
2023/04/29 12:09:09;;;;;;;4.90;2.93;;;;;;;;;;5112250;28;20521;-58
2023/04/29 12:11:40;;;;;;;3.70;2.33;;;;;;;;;;5114212;28;20030;-57
2023/04/29 12:14:06;;;;;;;4.03;2.30;;;;;;;;;;5114044;28;20031;-57
2023/04/29 12:16:34;;;;;;;10.63;3.03;;;;;;;;;;5113860;28;20045;-57
2023/04/29 12:19:01;;;;;;;6.83;2.37;;;;;;;;;;5114019;28;20288;-57
2023/04/29 12:21:27;;;;;;;3.97;2.77;;;;;;;;;;5110358;28;20016;-58
2023/04/29 12:23:54;;;;;;;6.00;2.50;;;;;;;;;;5108987;28;20049;-58
2023/04/29 12:26:21;;;;;;;10.53;3.00;;;;;;;;;;5108772;28;20096;-58
2023/04/29 12:28:54;;;;;;;4.67;2.57;;;;;;;;;;5108792;28;20345;-57
2023/04/29 12:31:21;;;;;;;5.07;2.93;;;;;;;;;;5111562;28;20034;-57
2023/04/29 12:33:48;;;;;;;2.27;1.83;;;;;;;;;;5113712;28;20035;-58
2023/04/29 12:36:18;;;;;;;3.67;2.40;;;;;;;;;;5113464;28;20058;-57
2023/04/29 12:38:45;;;;;;;28.03;2.60;;;;;;;;;;5113714;28;20138;-58
2023/04/29 12:41:16;;;;;;;3.07;2.07;;;;;;;;;;5095124;28;20023;-57
2023/04/29 12:43:43;;;;;;;3.80;2.37;;;;;;;;;;5109336;28;20510;-57
2023/04/29 12:46:13;;;;;;;11.77;4.97;;;;;;;;;;5108344;28;20256;-57
2023/04/29 12:48:42;;;;;;;3.57;2.43;;;;;;;;;;5108368;28;20291;-57
2023/04/29 12:51:10;;;;;;;10.87;3.77;;;;;;;;;;5108275;28;20264;-57
2023/04/29 12:53:37;;;;;;;5.23;3.40;;;;;;;;;;5111024;28;20028;-58
2023/04/29 12:56:05;;;;;;;7.10;4.27;;;;;;;;;;5113141;28;20078;-57
2023/04/29 12:58:33;;;;;;;19.00;4.73;;;;;;;;;;5112953;28;20031;-57
2023/04/29 13:01:00;;;;;;;16.83;7.53;;;;;;;;;;5112977;28;20527;-57
2023/04/29 13:03:27;;;;;;;9.90;5.80;;;;;;;;;;5112746;28;20095;-57
2023/04/29 13:05:54;;;;;;;13.83;6.43;;;;;;;;;;5109774;28;20053;-57
2023/04/29 13:08:21;;;;;;;19.40;6.50;;;;;;;;;;5108048;28;20482;-57
2023/04/29 13:10:48;;;;;;;16.73;7.07;;;;;;;;;;5107721;28;20172;-58
2023/04/29 13:13:15;;;;;;;10.60;6.37;;;;;;;;;;5108057;28;20393;-58
2023/04/29 13:15:42;;;;;;;14.67;7.83;;;;;;;;;;5110425;28;20160;-58
2023/04/29 13:18:09;;;;;;;13.90;7.03;;;;;;;;;;5113086;28;20051;-58
2023/04/29 13:20:35;;;;;;;10.03;7.17;;;;;;;;;;5112745;28;20409;-58
2023/04/29 13:23:02;;;;;;;18.10;8.83;;;;;;;;;;5112853;28;20429;-58
2023/04/29 13:25:29;;;;;;;28.07;6.93;;;;;;;;;;5112897;28;20028;-58
2023/04/29 13:27:56;;;;;;;10.23;6.80;;;;;;;;;;5109724;28;20034;-58
2023/04/29 13:30:22;;;;;;;8.33;4.90;;;;;;;;;;5107787;28;20059;-58
2023/04/29 13:32:49;;;;;;;26.20;6.13;;;;;;;;;;5107576;28;20031;-58
2023/04/29 13:35:16;;;;;;;7.50;4.77;;;;;;;;;;5107275;28;20097;-58
2023/04/29 13:37:43;;;;;;;8.10;4.23;;;;;;;;;;5109843;28;20470;-58
2023/04/29 13:40:10;;;;;;;5.40;3.57;;;;;;;;;;5112857;28;20028;-58
2023/04/29 13:42:37;;;;;;;9.60;4.00;;;;;;;;;;5112812;28;20077;-58
2023/04/29 13:45:04;;;;;;;9.17;4.40;;;;;;;;;;5112478;28;20031;-58
2023/04/29 13:47:31;;;;;;;7.83;4.40;;;;;;;;;;5112787;28;20023;-58
2023/04/29 13:49:57;;;;;;;10.00;3.77;;;;;;;;;;5109977;28;20527;-59
2023/04/29 13:52:24;;;;;;;14.67;6.93;;;;;;;;;;5107171;28;20039;-58
2023/04/29 13:54:51;;;;;;;6.13;4.17;;;;;;;;;;5107510;28;20032;-58
2023/04/29 13:57:18;;;;;;;6.60;4.67;;;;;;;;;;5110441;28;20041;-59
2023/04/29 13:59:45;;;;;;;8.73;4.20;;;;;;;;;;5113337;28;20046;-58
2023/04/29 14:02:12;;;;;;;8.83;4.53;;;;;;;;;;5116550;28;20020;-58
2023/04/29 14:04:39;;;;;;;8.90;3.67;;;;;;;;;;5116514;28;20090;-58
2023/04/29 14:07:06;;;;;;;4.87;3.57;;;;;;;;;;5116667;28;20027;-59
2023/04/29 14:09:33;;;;;;;9.20;4.63;;;;;;;;;;5115956;28;20031;-58
2023/04/29 14:11:59;;;;;;;14.63;5.60;;;;;;;;;;5114742;28;20023;-59
2023/04/29 14:14:26;;;;;;;7.50;4.50;;;;;;;;;;5111391;28;20047;-58
2023/04/29 14:16:53;;;;;;;7.23;5.10;;;;;;;;;;5111341;28;20060;-59
2023/04/29 14:19:20;;;;;;;7.90;4.97;;;;;;;;;;5111157;28;20027;-59
2023/04/29 14:21:46;;;;;;;14.50;4.57;;;;;;;;;;5112545;28;20024;-59
2023/04/29 14:24:13;;;;;;;14.47;4.87;;;;;;;;;;5116185;28;20024;-58
2023/04/29 14:26:40;;;;;;;14.47;5.30;;;;;;;;;;5115719;28;20031;-59
2023/04/29 14:29:07;;;;;;;7.37;4.53;;;;;;;;;;5116197;28;20031;-59
2023/04/29 14:31:36;;;;;;;11.20;4.93;;;;;;;;;;5116212;28;20081;-59
2023/04/29 14:34:04;;;;;;;5.50;3.83;;;;;;;;;;5114503;28;20077;-59
2023/04/29 14:36:33;;;;;;;10.03;5.73;;;;;;;;;;5110809;28;20474;-59
2023/04/29 14:39:00;;;;;;;12.37;6.40;;;;;;;;;;5111077;28;20035;-59
2023/04/29 14:41:27;;;;;;;7.90;4.83;;;;;;;;;;5110718;28;20049;-60
2023/04/29 14:43:54;;;;;;;6.23;4.57;;;;;;;;;;5111665;28;20477;-59